createdAt,value
2022-12-04T00:01:18.620Z,102861.84
2022-12-04T00:03:46.558Z,102849.50
2022-12-04T00:06:17.447Z,102852.00
2022-12-04T00:08:46.410Z,102868.34
2022-12-04T00:11:17.650Z,102862.69
2022-12-04T00:13:45.837Z,102852.91
2022-12-04T00:16:18.939Z,102853.59
2022-12-04T00:18:47.326Z,102862.44
2022-12-04T00:21:16.443Z,102858.34
2022-12-04T00:23:44.669Z,102855.84
2022-12-04T00:26:15.420Z,102859.50
2022-12-04T00:28:43.519Z,102852.88
2022-12-04T00:31:17.330Z,102862.88
2022-12-04T00:33:45.045Z,102869.47
2022-12-04T00:36:15.912Z,102863.03
2022-12-04T00:38:44.781Z,102859.19
2022-12-04T00:41:15.739Z,102857.75
2022-12-04T00:43:43.612Z,102858.44
2022-12-04T00:46:11.356Z,102855.66
2022-12-04T00:48:39.349Z,102858.41
2022-12-04T00:51:10.225Z,102863.66
2022-12-04T00:53:38.234Z,102871.44
2022-12-04T00:56:08.723Z,102868.72
2022-12-04T00:58:36.597Z,102867.34
2022-12-04T01:01:07.560Z,102877.53
2022-12-04T01:03:35.748Z,102871.59
2022-12-04T01:06:04.895Z,102875.75
2022-12-04T01:08:33.149Z,102878.03
2022-12-04T01:11:00.583Z,102869.16
2022-12-04T01:13:28.119Z,102863.69
2022-12-04T01:15:55.682Z,102867.75
2022-12-04T01:18:23.239Z,102869.06
2022-12-04T01:20:51.958Z,102867.72
2022-12-04T01:23:20.129Z,102867.16
2022-12-04T01:26:05.828Z,102871.06
2022-12-04T01:28:33.501Z,102879.63
2022-12-04T01:31:08.656Z,102876.44
2022-12-04T01:33:37.736Z,102873.25
2022-12-04T01:36:09.071Z,102872.38
2022-12-04T01:38:37.164Z,102869.22
2022-12-04T01:41:05.750Z,102874.44
2022-12-04T01:43:35.482Z,102874.88
2022-12-04T01:46:04.263Z,102871.66
2022-12-04T01:48:36.196Z,102865.25
2022-12-04T01:51:20.682Z,102880.00
2022-12-04T01:53:56.235Z,102874.72
2022-12-04T01:56:29.578Z,102877.69
2022-12-04T01:59:00.827Z,102875.88
2022-12-04T02:01:36.441Z,102879.91
2022-12-04T02:04:04.240Z,102875.63
2022-12-04T02:06:31.739Z,102870.53
2022-12-04T02:08:59.756Z,102871.84
2022-12-04T02:11:39.276Z,102873.94
2022-12-04T02:14:21.584Z,102878.66
2022-12-04T02:17:01.059Z,102879.94
2022-12-04T02:19:43.946Z,102879.16
2022-12-04T02:22:22.687Z,102885.97
2022-12-04T02:25:11.896Z,102879.47
2022-12-04T02:27:39.889Z,102890.38
2022-12-04T02:30:11.692Z,102880.56
2022-12-04T02:33:02.778Z,102888.84
2022-12-04T02:35:36.736Z,102877.94
2022-12-04T02:38:12.321Z,102885.72
2022-12-04T02:40:53.637Z,102888.06
2022-12-04T02:43:29.393Z,102885.75
2022-12-04T02:46:03.032Z,102882.63
2022-12-04T02:48:35.664Z,102888.97
2022-12-04T02:51:06.952Z,102895.75
2022-12-04T02:53:40.598Z,102905.44
2022-12-04T02:56:29.030Z,102890.91
2022-12-04T02:59:00.906Z,102886.81
2022-12-04T03:01:34.423Z,102889.13
2022-12-04T03:04:07.746Z,102896.53
2022-12-04T03:06:39.501Z,102889.44
2022-12-04T03:09:30.955Z,102888.75
2022-12-04T03:12:06.565Z,102894.81
2022-12-04T03:14:42.544Z,102895.97
2022-12-04T03:17:20.532Z,102893.63
2022-12-04T03:19:57.246Z,102893.59
2022-12-04T03:22:26.518Z,102897.47
2022-12-04T03:24:56.938Z,102897.63
2022-12-04T03:27:48.699Z,102902.47
2022-12-04T03:30:19.389Z,102905.22
2022-12-04T03:32:52.192Z,102897.03
2022-12-04T03:35:29.615Z,102899.31
2022-12-04T03:38:02.663Z,102892.59
2022-12-04T03:40:42.048Z,102897.78
2022-12-04T03:44:01.295Z,102908.97
2022-12-04T03:46:41.635Z,102911.31
2022-12-04T03:49:17.472Z,102911.50
2022-12-04T03:51:54.340Z,102907.38
2022-12-04T03:54:29.026Z,102917.53
2022-12-04T03:57:03.447Z,102918.44
2022-12-04T03:59:38.216Z,102916.41
2022-12-04T04:02:10.463Z,102913.06
2022-12-04T04:04:41.859Z,102911.91
2022-12-04T04:07:17.645Z,102924.56
2022-12-04T04:09:48.035Z,102928.94
2022-12-04T04:12:20.716Z,102923.88
2022-12-04T04:15:17.820Z,102922.31
2022-12-04T04:18:07.360Z,102915.25
2022-12-04T04:21:01.587Z,102921.91
2022-12-04T04:23:57.102Z,102920.59
2022-12-04T04:26:26.667Z,102939.38
2022-12-04T04:28:54.095Z,102931.88
2022-12-04T04:31:41.967Z,102929.91
2022-12-04T04:34:21.742Z,102928.50
2022-12-04T04:36:55.745Z,102936.91
2022-12-04T04:39:29.011Z,102936.25
2022-12-04T04:42:29.193Z,102939.91
2022-12-04T04:45:09.085Z,102945.22
2022-12-04T04:47:55.238Z,102949.25
2022-12-04T04:50:23.693Z,102940.53
2022-12-04T04:52:56.034Z,102949.44
2022-12-04T04:55:24.129Z,102955.59
2022-12-04T04:57:51.686Z,102944.25
2022-12-04T05:00:22.511Z,102957.41
2022-12-04T05:02:50.526Z,102956.97
2022-12-04T05:05:18.308Z,102950.22
2022-12-04T05:07:46.176Z,102950.69
2022-12-04T05:10:14.130Z,102940.22
2022-12-04T05:12:43.851Z,102946.91
2022-12-04T05:15:11.674Z,102948.00
2022-12-04T05:17:39.319Z,102950.06
2022-12-04T05:20:07.905Z,102949.09
2022-12-04T05:22:37.037Z,102944.53
2022-12-04T05:25:05.662Z,102943.63
2022-12-04T05:27:33.521Z,102941.50
2022-12-04T05:30:01.116Z,102942.81
2022-12-04T05:32:30.815Z,102950.81
2022-12-04T05:34:58.507Z,102950.06
2022-12-04T05:37:26.792Z,102959.16
2022-12-04T05:39:54.766Z,102960.28
2022-12-04T05:42:22.879Z,102966.41
2022-12-04T05:44:50.544Z,102973.47
2022-12-04T05:47:18.181Z,102962.69
2022-12-04T05:49:45.762Z,102965.41
2022-12-04T05:52:13.368Z,102960.78
2022-12-04T05:54:41.022Z,102964.16
2022-12-04T05:57:08.623Z,102963.09
2022-12-04T05:59:36.623Z,102962.69
2022-12-04T06:02:04.273Z,102970.25
2022-12-04T06:04:31.995Z,102971.38
2022-12-04T06:06:59.449Z,102973.38
2022-12-04T06:09:27.106Z,102967.69
2022-12-04T06:11:57.934Z,102961.66
2022-12-04T06:14:25.606Z,102966.94
2022-12-04T06:16:53.487Z,102964.47
2022-12-04T06:19:22.499Z,102967.88
2022-12-04T06:21:52.767Z,102969.34
2022-12-04T06:24:24.837Z,102966.84
2022-12-04T06:27:26.160Z,102973.81
2022-12-04T06:29:44.436Z,102962.63
2022-12-04T06:32:15.209Z,102958.88
2022-12-04T06:34:51.558Z,102975.63
2022-12-04T06:37:19.915Z,102975.59
2022-12-04T06:39:47.638Z,102975.13
2022-12-04T06:42:16.066Z,102977.56
2022-12-04T06:44:43.626Z,102980.09
2022-12-04T06:47:11.135Z,102977.50
2022-12-04T06:49:38.862Z,102974.63
2022-12-04T06:52:06.399Z,102977.16
2022-12-04T06:54:33.837Z,102983.53
2022-12-04T06:57:01.407Z,102972.28
2022-12-04T06:59:28.884Z,102972.97
2022-12-04T07:01:56.493Z,102966.16
2022-12-04T07:04:24.881Z,102982.75
2022-12-04T07:06:52.705Z,102978.94
2022-12-04T07:09:20.451Z,102977.13
2022-12-04T07:11:48.006Z,102992.63
2022-12-04T07:14:15.752Z,102991.13
2022-12-04T07:16:43.527Z,102989.59
2022-12-04T07:19:13.837Z,103000.97
2022-12-04T07:21:42.159Z,102993.72
2022-12-04T07:24:15.309Z,102993.13
2022-12-04T07:26:43.221Z,102997.28
2022-12-04T07:29:11.034Z,102996.03
2022-12-04T07:31:38.884Z,103004.06
2022-12-04T07:34:07.502Z,103004.56
2022-12-04T07:36:35.113Z,102988.38
2022-12-04T07:39:02.794Z,102995.88
2022-12-04T07:41:30.556Z,103000.66
2022-12-04T07:43:59.427Z,102994.47
2022-12-04T07:46:28.254Z,103003.72
2022-12-04T07:48:57.274Z,103001.59
2022-12-04T07:51:29.483Z,103000.72
2022-12-04T07:54:03.732Z,103009.63
2022-12-04T07:56:33.547Z,102997.97
2022-12-04T07:59:01.722Z,103000.34
2022-12-04T08:01:29.397Z,103010.19
2022-12-04T08:03:58.732Z,103003.22
2022-12-04T08:06:28.484Z,103000.81
2022-12-04T08:08:57.542Z,103005.34
2022-12-04T08:11:27.548Z,102996.66
2022-12-04T08:13:57.235Z,103000.69
2022-12-04T08:16:26.016Z,102994.84
2022-12-04T08:18:54.427Z,102999.03
2022-12-04T08:21:24.484Z,102999.16
2022-12-04T08:23:54.060Z,102999.25
2022-12-04T08:26:24.642Z,102993.09
2022-12-04T08:28:57.268Z,102986.44
2022-12-04T08:31:27.418Z,103002.91
2022-12-04T08:33:58.345Z,102993.72
2022-12-04T08:36:26.509Z,103001.78
2022-12-04T08:38:54.070Z,102996.00
2022-12-04T08:41:24.307Z,103006.34
2022-12-04T08:43:56.506Z,103004.94
2022-12-04T08:46:26.025Z,103004.06
2022-12-04T08:48:54.729Z,102997.78
2022-12-04T08:51:26.690Z,103002.13
2022-12-04T08:54:07.015Z,102998.53
2022-12-04T08:56:36.671Z,103003.59
2022-12-04T08:59:12.417Z,102998.13
2022-12-04T09:01:41.527Z,102998.16
2022-12-04T09:04:09.954Z,103002.03
2022-12-04T09:06:37.435Z,102997.00
2022-12-04T09:09:05.382Z,102988.81
2022-12-04T09:11:33.363Z,102997.50
2022-12-04T09:14:02.813Z,102991.78
2022-12-04T09:16:31.097Z,102984.03
2022-12-04T09:18:59.445Z,102979.94
2022-12-04T09:21:26.932Z,102985.41
2022-12-04T09:23:54.665Z,102989.28
2022-12-04T09:26:29.311Z,102990.88
2022-12-04T09:29:00.433Z,102992.47
2022-12-04T09:31:28.532Z,102977.19
2022-12-04T09:34:01.386Z,102979.72
2022-12-04T09:36:29.704Z,102976.50
2022-12-04T09:38:58.125Z,102982.66
2022-12-04T09:41:58.954Z,102983.78
2022-12-04T09:44:53.797Z,102979.16
2022-12-04T09:47:31.620Z,102982.84
2022-12-04T09:50:13.054Z,102982.59
2022-12-04T09:53:03.791Z,102976.59
2022-12-04T09:56:26.957Z,102972.47
2022-12-04T09:59:14.507Z,102982.31
2022-12-04T10:01:49.446Z,102989.84
2022-12-04T10:04:19.205Z,102979.53
2022-12-04T10:07:04.970Z,102976.97
2022-12-04T10:09:41.229Z,102966.84
2022-12-04T10:12:14.684Z,102985.97
2022-12-04T10:14:46.148Z,102972.19
2022-12-04T10:17:13.774Z,102969.50
2022-12-04T10:19:50.197Z,102969.94
2022-12-04T10:22:33.463Z,102967.84
2022-12-04T10:25:11.987Z,102966.50
2022-12-04T10:27:40.640Z,102964.44
2022-12-04T10:30:19.389Z,102956.22
2022-12-04T10:32:48.355Z,102948.50
2022-12-04T10:35:27.149Z,102946.88
2022-12-04T10:37:58.836Z,102955.19
2022-12-04T10:40:33.291Z,102950.38
2022-12-04T10:43:26.199Z,102947.25
2022-12-04T10:45:53.853Z,102945.25
2022-12-04T10:48:42.066Z,102951.16
2022-12-04T10:51:35.717Z,102950.69
2022-12-04T10:54:45.039Z,102946.41
2022-12-04T10:57:14.034Z,102956.47
2022-12-04T10:59:55.700Z,102951.06
2022-12-04T11:02:27.635Z,102947.94
2022-12-04T11:05:01.052Z,102942.31
2022-12-04T11:07:32.393Z,102941.88
2022-12-04T11:10:05.625Z,102945.47
2022-12-04T11:12:33.806Z,102946.88
2022-12-04T11:15:02.383Z,102943.25
2022-12-04T11:17:31.864Z,102940.31
2022-12-04T11:20:02.542Z,102937.31
2022-12-04T11:22:31.896Z,102950.72
2022-12-04T11:25:00.200Z,102939.56
2022-12-04T11:27:34.327Z,102941.16
2022-12-04T11:30:07.846Z,102936.91
2022-12-04T11:32:36.088Z,102940.25
2022-12-04T11:35:26.949Z,102937.72
2022-12-04T11:38:03.208Z,102936.84
2022-12-04T11:40:31.124Z,102930.00
2022-12-04T11:43:19.685Z,102934.78
2022-12-04T11:46:02.838Z,102928.63
2022-12-04T11:48:40.743Z,102924.34
2022-12-04T11:51:45.758Z,102927.28
2022-12-04T11:54:34.823Z,102931.19
2022-12-04T11:57:15.110Z,102932.88
2022-12-04T12:00:13.016Z,102918.03
2022-12-04T12:03:02.018Z,102920.81
2022-12-04T12:05:48.404Z,102929.72
2022-12-04T12:08:33.795Z,102929.50
2022-12-04T12:11:10.683Z,102931.34
2022-12-04T12:14:28.064Z,102923.31
2022-12-04T12:17:28.505Z,102918.31
2022-12-04T12:20:18.940Z,102926.75
2022-12-04T12:22:52.466Z,102930.44
2022-12-04T12:25:51.767Z,102928.13
2022-12-04T12:28:49.585Z,102920.41
2022-12-04T12:31:50.919Z,102918.56
2022-12-04T12:34:18.342Z,102924.75
2022-12-04T12:36:50.657Z,102918.84
2022-12-04T12:39:30.599Z,102912.22
2022-12-04T12:42:01.291Z,102925.44
2022-12-04T12:44:34.711Z,102933.00
2022-12-04T12:47:09.968Z,102933.22
2022-12-04T12:49:50.110Z,102940.03
2022-12-04T12:52:30.285Z,102926.38
2022-12-04T12:55:33.590Z,102928.22
2022-12-04T12:58:10.990Z,102939.84
2022-12-04T13:00:45.920Z,102942.56
2022-12-04T13:03:33.717Z,102941.66
2022-12-04T13:06:07.223Z,102934.81
2022-12-04T13:08:52.881Z,102943.69
2022-12-04T13:11:24.314Z,102933.44
2022-12-04T13:14:03.375Z,102938.00
2022-12-04T13:17:00.021Z,102935.06
2022-12-04T13:19:43.525Z,102940.06
2022-12-04T13:22:28.976Z,102942.34
2022-12-04T13:25:02.487Z,102938.91
2022-12-04T13:28:07.355Z,102934.81
2022-12-04T13:30:43.756Z,102938.00
2022-12-04T13:33:41.791Z,102949.38
2022-12-04T13:36:09.269Z,102943.22
2022-12-04T13:39:01.559Z,102950.28
2022-12-04T13:41:34.031Z,102952.28
2022-12-04T13:44:06.937Z,102942.25
2022-12-04T13:46:37.504Z,102948.63
2022-12-04T13:49:27.119Z,102952.94
2022-12-04T13:51:56.403Z,102940.44
2022-12-04T13:54:31.536Z,102945.91
2022-12-04T13:57:21.274Z,102949.75
2022-12-04T13:59:49.642Z,102941.09
2022-12-04T14:02:35.688Z,102947.47
2022-12-04T14:05:10.149Z,102945.59
2022-12-04T14:07:40.426Z,102946.50
2022-12-04T14:10:31.202Z,102952.13
2022-12-04T14:13:23.748Z,102946.91
2022-12-04T14:16:04.904Z,102946.41
2022-12-04T14:18:32.610Z,102949.13
2022-12-04T14:21:04.922Z,102944.81
2022-12-04T14:23:41.327Z,102942.06
2022-12-04T14:29:47.615Z,102941.84
2022-12-04T14:32:35.413Z,102937.47
2022-12-04T14:35:03.805Z,102943.78
2022-12-04T14:37:36.464Z,102935.81
2022-12-04T14:40:07.706Z,102931.03
2022-12-04T14:42:39.599Z,102939.44
2022-12-04T14:45:26.436Z,102940.81
2022-12-04T14:48:08.984Z,102939.47
2022-12-04T14:51:04.615Z,102944.94
2022-12-04T14:53:48.679Z,102928.53
2022-12-04T14:56:35.713Z,102927.63
2022-12-04T14:59:16.324Z,102930.34
2022-12-04T15:01:47.619Z,102939.38
2022-12-04T15:04:33.338Z,102930.06
2022-12-04T15:07:01.129Z,102929.63
2022-12-04T15:09:48.238Z,102926.44
2022-12-04T15:12:37.154Z,102932.84
2022-12-04T15:15:27.441Z,102940.63
2022-12-04T15:18:24.404Z,102932.38
2022-12-04T15:20:51.918Z,102929.66
2022-12-04T15:23:30.288Z,102931.44
2022-12-04T15:26:03.367Z,102936.88
2022-12-04T15:28:43.866Z,102931.94
2022-12-04T15:31:23.643Z,102920.75
2022-12-04T15:33:57.223Z,102928.44
2022-12-04T15:36:48.085Z,102926.16
2022-12-04T15:39:21.632Z,102927.47
2022-12-04T15:41:50.190Z,102927.94
2022-12-04T15:44:36.743Z,102925.25
2022-12-04T15:47:20.719Z,102935.25
2022-12-04T15:49:48.666Z,102924.19
2022-12-04T15:52:22.204Z,102920.38
2022-12-04T15:55:01.158Z,102914.66
2022-12-04T15:57:42.861Z,102934.19
2022-12-04T16:00:24.449Z,102938.34
2022-12-04T16:02:52.407Z,102928.50
2022-12-04T16:05:22.739Z,102935.03
2022-12-04T16:08:02.573Z,102942.25
2022-12-04T16:10:33.168Z,102938.16
2022-12-04T16:13:03.784Z,102946.78
2022-12-04T16:15:43.958Z,102936.38
2022-12-04T16:18:14.307Z,102941.50
2022-12-04T16:20:41.990Z,102939.38
2022-12-04T16:23:10.033Z,102921.78
2022-12-04T16:25:37.733Z,102935.47
2022-12-04T16:28:06.008Z,102936.75
2022-12-04T16:30:35.711Z,102932.00
2022-12-04T16:33:03.628Z,102932.91
2022-12-04T16:35:31.710Z,102938.78
2022-12-04T16:37:59.318Z,102934.66
2022-12-04T16:40:26.851Z,102925.16
2022-12-04T16:42:54.488Z,102917.16
2022-12-04T16:45:25.558Z,102926.44
2022-12-04T16:47:53.276Z,102930.09
2022-12-04T16:50:20.966Z,102925.09
2022-12-04T16:52:48.424Z,102913.09
2022-12-04T16:55:19.879Z,102927.16
2022-12-04T16:57:47.950Z,102921.25
2022-12-04T17:00:18.174Z,102926.47
2022-12-04T17:02:46.420Z,102932.69
2022-12-04T17:05:22.617Z,102925.19
2022-12-04T17:07:50.749Z,102931.97
2022-12-04T17:10:23.725Z,102931.31
2022-12-04T17:12:55.399Z,102938.28
2022-12-04T17:15:23.202Z,102939.56
2022-12-04T17:17:51.316Z,102930.63
2022-12-04T17:20:20.668Z,102929.25
2022-12-04T17:22:49.399Z,102936.88
2022-12-04T17:25:17.683Z,102928.03
2022-12-04T17:27:45.584Z,102921.84
2022-12-04T17:30:13.970Z,102925.47
2022-12-04T17:32:44.944Z,102930.34
2022-12-04T17:35:12.878Z,102928.88
2022-12-04T17:37:41.878Z,102922.31
2022-12-04T17:40:11.258Z,102922.50
2022-12-04T17:42:41.116Z,102922.38
2022-12-04T17:45:10.868Z,102920.19
2022-12-04T17:47:38.649Z,102911.03
2022-12-04T17:50:07.293Z,102919.72
2022-12-04T17:52:34.812Z,102914.41
2022-12-04T17:55:02.928Z,102913.06
2022-12-04T17:57:31.248Z,102918.84
2022-12-04T17:59:58.817Z,102908.44
2022-12-04T18:02:26.509Z,102909.97
2022-12-04T18:04:55.383Z,102898.69
2022-12-04T18:07:23.340Z,102910.34
2022-12-04T18:09:50.823Z,102900.13
2022-12-04T18:12:18.531Z,102902.41
2022-12-04T18:14:46.591Z,102902.25
2022-12-04T18:17:14.129Z,102899.63
2022-12-04T18:19:41.807Z,102902.91
2022-12-04T18:22:09.408Z,102900.06
2022-12-04T18:24:36.994Z,102899.16
2022-12-04T18:27:05.493Z,102901.88
2022-12-04T18:29:33.027Z,102893.94
2022-12-04T18:32:00.591Z,102898.34
2022-12-04T18:34:28.293Z,102901.06
2022-12-04T18:36:55.857Z,102897.88
2022-12-04T18:39:25.162Z,102905.22
2022-12-04T18:41:57.481Z,102909.16
2022-12-04T18:44:26.241Z,102900.59
2022-12-04T18:46:53.912Z,102894.47
2022-12-04T18:49:21.510Z,102897.41
2022-12-04T18:51:50.273Z,102893.03
2022-12-04T18:54:20.898Z,102895.38
2022-12-04T18:56:49.361Z,102896.97
2022-12-04T18:59:22.433Z,102904.47
2022-12-04T19:01:50.657Z,102892.19
2022-12-04T19:04:20.424Z,102878.19
2022-12-04T19:06:55.490Z,102889.94
2022-12-04T19:09:47.063Z,102876.53
2022-12-04T19:12:13.770Z,102882.88
2022-12-04T19:14:41.302Z,102879.88
2022-12-04T19:17:09.347Z,102883.25
2022-12-04T19:19:37.045Z,102878.22
2022-12-04T19:22:04.660Z,102877.28
2022-12-04T19:24:32.370Z,102881.47
2022-12-04T19:27:02.078Z,102881.25
2022-12-04T19:29:30.932Z,102882.97
2022-12-04T19:31:59.716Z,102877.97
2022-12-04T19:34:30.377Z,102868.28
2022-12-04T19:36:58.096Z,102869.19
2022-12-04T19:39:25.639Z,102874.84
2022-12-04T19:41:53.784Z,102868.03
2022-12-04T19:47:10.065Z,102870.13
2022-12-04T19:49:37.575Z,102870.50
2022-12-04T19:52:05.636Z,102866.94
2022-12-04T19:54:33.341Z,102860.13
2022-12-04T19:57:01.347Z,102863.31
2022-12-04T19:59:36.109Z,102859.53
2022-12-04T20:02:05.456Z,102860.66
2022-12-04T20:04:32.910Z,102862.72
2022-12-04T20:07:00.537Z,102870.03
2022-12-04T20:09:28.106Z,102868.00
2022-12-04T20:11:55.575Z,102856.91
2022-12-04T20:14:24.432Z,102854.91
2022-12-04T20:16:52.108Z,102848.38
2022-12-04T20:19:20.207Z,102869.97
2022-12-04T20:21:47.952Z,102858.38
2022-12-04T20:24:16.745Z,102852.53
2022-12-04T20:26:46.146Z,102865.31
2022-12-04T20:29:15.505Z,102855.09
2022-12-04T20:31:45.316Z,102861.47
2022-12-04T20:34:18.008Z,102859.69
2022-12-04T20:36:47.355Z,102858.03
2022-12-04T20:39:16.563Z,102850.78
2022-12-04T20:41:44.203Z,102863.72
2022-12-04T20:44:14.862Z,102849.19
2022-12-04T20:46:42.990Z,102853.50
2022-12-04T20:49:21.667Z,102851.47
2022-12-04T20:51:51.311Z,102860.38
2022-12-04T20:54:20.511Z,102855.38
2022-12-04T20:56:49.194Z,102862.66
2022-12-04T20:59:19.158Z,102857.66
2022-12-04T21:01:49.168Z,102853.78
2022-12-04T21:04:18.096Z,102863.94
2022-12-04T21:06:47.144Z,102863.19
2022-12-04T21:09:23.602Z,102857.53
2022-12-04T21:11:54.770Z,102847.09
2022-12-04T21:14:44.941Z,102854.19
2022-12-04T21:17:18.486Z,102857.63
2022-12-04T21:19:47.357Z,102851.28
2022-12-04T21:22:15.971Z,102852.66
2022-12-04T21:24:43.605Z,102851.56
2022-12-04T21:27:14.505Z,102851.16
2022-12-04T21:29:46.720Z,102846.81
2022-12-04T21:32:14.209Z,102842.50
2022-12-04T21:34:41.743Z,102836.09
2022-12-04T21:37:09.362Z,102835.66
2022-12-04T21:39:37.214Z,102825.63
2022-12-04T21:42:23.816Z,102826.78
2022-12-04T21:44:51.726Z,102819.28
2022-12-04T21:47:19.242Z,102818.19
2022-12-04T21:49:47.873Z,102818.38
2022-12-04T21:52:16.569Z,102810.38
2022-12-04T21:54:44.330Z,102809.41
2022-12-04T21:57:11.870Z,102808.72
2022-12-04T21:59:39.388Z,102807.81
2022-12-04T22:02:07.024Z,102814.16
2022-12-04T22:04:34.556Z,102805.78
2022-12-04T22:07:02.125Z,102811.22
2022-12-04T22:09:29.689Z,102804.91
2022-12-04T22:11:57.160Z,102802.88
2022-12-04T22:14:24.691Z,102801.53
2022-12-04T22:16:53.173Z,102799.03
2022-12-04T22:19:20.971Z,102784.44
2022-12-04T22:21:48.536Z,102792.44
2022-12-04T22:24:35.987Z,102786.75
2022-12-04T22:27:05.735Z,102791.75
2022-12-04T22:29:49.922Z,102785.84
2022-12-04T22:32:19.664Z,102777.44
2022-12-04T22:34:50.029Z,102777.91
2022-12-04T22:37:17.670Z,102782.44
2022-12-04T22:39:45.220Z,102782.19
2022-12-04T22:42:12.820Z,102775.38
2022-12-04T22:44:40.415Z,102781.47
2022-12-04T22:47:08.137Z,102782.56
2022-12-04T22:49:35.659Z,102783.47
2022-12-04T22:52:03.272Z,102769.41
2022-12-04T22:54:30.731Z,102772.81
2022-12-04T22:56:58.332Z,102766.69
2022-12-04T22:59:25.866Z,102770.06
2022-12-04T23:01:53.445Z,102764.34
2022-12-04T23:04:21.005Z,102773.88
2022-12-04T23:06:48.522Z,102767.47
2022-12-04T23:09:17.506Z,102767.47
2022-12-04T23:11:45.677Z,102779.53
2022-12-04T23:14:15.522Z,102775.19
2022-12-04T23:16:43.195Z,102770.59
2022-12-04T23:19:13.360Z,102768.28
2022-12-04T23:21:41.352Z,102764.41
2022-12-04T23:24:10.053Z,102774.47
2022-12-04T23:26:40.769Z,102767.69
2022-12-04T23:29:29.819Z,102761.63
2022-12-04T23:31:55.976Z,102767.59
2022-12-04T23:34:23.522Z,102763.84
2022-12-04T23:36:51.007Z,102766.56
2022-12-04T23:39:18.510Z,102760.56
2022-12-04T23:41:46.146Z,102763.75
2022-12-04T23:44:13.657Z,102757.44
2022-12-04T23:46:41.251Z,102751.47
2022-12-04T23:49:08.896Z,102754.41
2022-12-04T23:51:36.457Z,102747.78
2022-12-04T23:54:04.056Z,102741.66
2022-12-04T23:56:32.755Z,102738.78
2022-12-04T23:59:00.336Z,102729.19
